ACT        NSW        VIC        QLD        SA        WA        TAS        NT        INFO        CALC            by VK5ZD

Past Date/Time: (dd/mm/yyyy hh:mm or blank for current data)    

  Atmospheric Gas Attenuation - ITU Rec 676-11   --------------- dB/100km ---------------
WA Stations Date Time Temp RH % AH g/m3 Dew Point Wind Direction Speed kph Gust kph Barometer mB Rainfall Since 9am 24GHz 47GHz 76GHz 122GHz 134GHz 241GHz
Albany Airport 02/09 08:20 12.5 90 9.9 10.9 22 32 1018.9 0 22.4 28.7 46.2 121.4 118.5 408.6
Badgingarra 02/09 08:20 11.2 86 8.72 8.9 0 2 1013.1 0 20.0 26.9 41.6 109.3 103.4 355.7
Barimunya 02/09 08:20 24.8 26 5.92 4 15 20 1013.1 0 13.5 19.3 25.9 67.5 56.5 192.9
Barrow Island 02/09 08:20 23.1 71 14.68 17.6 20 24 1018.1 0 31.9 33.2 59.6 157.3 166.4 577.1
Bickley 02/09 08:20 11 71 7.11 6 9 15 1013.1 0 16.5 24.3 35.2 92.1 82.1 281.1
Boolgeeda 02/09 08:20 24 31 6.74 5.8 7 11 1018.1 0 15.2 20.7 29.0 75.6 66.1 226.3
Bridgetown 02/09 08:20 12.2 89 9.61 10.4 7 15 1021 0 21.8 28.4 45.2 118.8 115.1 396.5
Broome 02/09 08:20 21.5 98 18.48 21.2 15 19 1017.7 0.2 40.2 40.9 78.6 207.8 227.9 791.2
Bunbury 02/09 08:20 15.7 75 10.03 11.3 15 20 1021.8 0 22.5 28.0 45.0 118.3 115.7 399.2
Busselton Airport 02/09 08:20 13.7 99 11.72 13.5 13 19 1021.4 0 26.3 31.6 53.6 141.1 143.1 494.5
Cape Leeuwin 02/09 08:20 16 79 10.76 12.4 41 46 1020.2 1.8 24.1 29.1 47.8 125.8 125.1 432.1
Cape Naturaliste 02/09 08:20 14.2 88 10.75 12.2 35 54 1021.1 0 24.2 29.7 48.9 128.7 128.0 442.1
Carnarvon 02/09 08:20 19.4 70 11.68 13.8 24 33 1022.5 0 25.8 29.6 49.7 130.7 132.3 457.7
Christmas Creek 02/09 08:20 24.4 26 5.79 3.7 15 22 1018.9 0 13.2 19.4 25.8 67.2 55.8 190.1
Christmas Island 02/09 08:20 24.5 84 18.8 21.6 20 32 1016.3 0 40.6 40.0 76.9 203.5 223.7 776.7
Collie East 02/09 08:20 13 77 8.73 9.1 7 15 1013.1 0 19.9 26.3 40.7 106.9 101.1 348.0
Coondewanna 02/09 08:20 22.3 29 5.73 3.4 0 0 1013.1 0 13.2 19.6 26.1 67.9 56.3 191.7
Cunderdin Airport 02/09 08:20 10 86 8.08 7.8 9 11 1023.8 0.2 18.6 26.6 40.1 104.9 97.1 333.1
Curtin 02/09 08:20 25.9 68 16.46 19.5 9 15 1017.5 0 35.5 35.2 65.0 171.9 185.2 643.0
Dalwallinu 02/09 08:20 11 74 7.41 6.6 0 0 1023.7 0 17.2 25.2 36.8 96.3 86.8 297.5
Derby 02/09 08:20 27.3 70 18.32 21.3 9 13 1017.9 0 39.3 37.9 72.1 190.6 208.6 724.7
Dwellingup 02/09 08:20 12.2 79 8.53 8.7 15 26 1022.5 0 19.5 26.6 40.7 106.8 100.3 344.7
Eliwana Airport 02/09 08:20 24.4 36 8.01 8.4 4 6 1013.1 0 17.9 22.2 32.9 86.1 79.4 273.1
Esperance 02/09 08:20 12.5 67 7.37 6.5 20 28 1020.7 0 17.0 24.6 35.9 93.8 84.4 289.3
Esperance Airport 02/09 08:20 11.6 71 7.38 6.5 22 24 1020.9 0 17.1 24.8 36.3 95.0 85.6 293.1
Eucla 02/09 08:20 15.4 67 8.8 9.3 11 17 1021.4 0 19.9 26.1 40.2 105.3 99.7 343.0
Fitzroy Crossing 02/09 08:20 29.1 31 8.95 10.3 7 13 1018.2 0 19.6 22.5 34.3 90.0 85.3 294.5
Forrest 02/09 08:20 14.4 78 9.64 10.6 1021.7 0 21.8 27.7 44.1 115.9 112.3 387.1
Fortescue Dave Forrest 02/09 08:20 25.4 25 5.89 4 17 24 1017.9 0 13.4 19.3 25.8 67.1 56.1 191.3
Garden Island 02/09 08:20 16.1 60 8.22 8.3 22 33 1023 0 18.7 25.0 37.6 98.5 91.5 314.4
Geraldton Airport 02/09 08:20 14 86 10.37 11.7 9 13 1024 0.2 23.4 29.2 47.6 125.0 123.3 425.4
Gerangamete (Cfa) 02/09 10:10 11.6 74 7.69 7.1 13 15 1013.1 0 17.7 25.0 37.2 97.5 89.0 305.5
Giles* 02/09 09:50 26.4 23 5.73 3.6 19 28 1020.2 0 13.1 19.0 25.1 65.2 53.9 183.7
Gingin Airport 02/09 08:20 11.8 77 8.11 7.9 11 15 1023.8 0 18.6 26.1 39.3 102.9 95.2 327.0
Golden Grove 02/09 08:20 11.5 78 8.06 7.8 9 13 1013.1 0 18.5 25.7 38.7 101.6 94.1 323.0
Gooseberry Hill 02/09 08:20 11.8 72 7.58 6.9 4 7 1013.1 0 17.5 24.8 36.7 96.1 87.4 299.6
Gudai-Darri Mine 02/09 08:20 27.6 22 5.85 4 17 24 1013.1 0 13.3 18.7 24.9 64.7 54.0 184.2
Halls Creek 02/09 09:50 27.2 26 6.77 6 15 20 1018.9 0 15.2 20.1 28.0 73.1 63.9 219.0
Hopetoun North 02/09 08:20 13.5 63 7.37 6.6 17 28 1019.5 0 17.0 24.3 35.4 92.5 83.3 285.4
Iron Bridge Mine 02/09 08:20 28 24 6.53 5.6 7 17 1013.1 0 14.7 19.5 26.8 69.9 60.5 207.2
Jacup 02/09 08:20 12.4 64 6.99 5.8 20 30 1020 0 16.2 24.0 34.4 89.9 79.6 272.4
Jandakot 02/09 08:20 13 72 8.17 8.1 9 11 1023 0 18.7 25.8 38.9 101.9 94.5 324.6
Kalgoorlie-Boulder 02/09 08:20 15.1 54 6.97 5.9 19 24 1021.4 0 16.1 23.3 33.2 86.9 76.8 262.8
Kalumburu 02/09 09:50 28 56 15.23 18.4 9 17 1017.9 0 32.7 32.3 58.2 153.7 163.4 567.4
Karijini North 02/09 08:20 27.6 22 5.85 4 7 11 1017.9 0 13.3 18.8 25.0 65.1 54.2 184.9
Karratha 02/09 08:20 23.3 62 12.96 15.6 20 24 1017.4 0 28.3 30.2 52.2 137.5 142.2 492.7
Katanning Rs 02/09 08:20 12.1 74 7.94 7.6 15 24 1020.9 0.2 18.3 25.6 38.3 100.4 92.4 317.0
Koolan Island / Koolan Central 02/09 08:20 26.1 72 17.63 20.7 6 7 1013.1 0 37.9 37.0 69.8 184.6 201.0 698.2
Kununurra Airport 02/09 09:50 29.4 32 9.4 11 9 15 1018.8 0 20.5 23.1 35.7 93.7 90.0 310.9
Lake Grace 02/09 08:20 10.7 71 6.98 5.7 11 17 1021.9 0 16.3 24.5 35.2 91.9 81.4 278.3
Lancelin (Defence) 02/09 08:20 16.1 52 7.13 6.3 7 11 1023.4 0.2 16.4 23.3 33.5 87.5 77.9 266.9
Laverton 02/09 08:20 15.8 76 10.23 11.6 9 11 1020.6 0 23.0 28.2 45.7 120.2 118.2 407.8
Learmonth 02/09 08:20 21.6 64 12.14 14.5 17 24 1019.6 0 26.7 29.5 50.0 131.8 134.4 465.5
Legendre Island 02/09 08:20 24.5 67 14.99 18 24 28 1017.7 0 32.5 33.2 59.8 157.9 167.6 581.7
Leinster 02/09 08:20 14.8 72 9.12 9.8 15 20 1020.7 0 20.6 26.7 41.7 109.5 104.6 360.3
Leonora Airport 02/09 08:20 15.2 68 8.83 9.3 11 17 1021.1 0 20.0 26.2 40.4 105.9 100.3 345.2
Lombadina 02/09 08:20 27.3 59 15.44 18.6 6 9 1013.1 0 33.2 32.7 59.3 156.7 167.2 580.4
Mandora 02/09 08:20 28.2 35 9.62 11.3 7 13 1017.1 0 21.0 23.6 36.9 96.9 93.7 323.7
Mandurah 02/09 08:20 15.6 69 9.18 9.9 13 20 1022.6 0 20.7 26.7 41.6 109.2 104.5 360.0
Manjimup 02/09 08:20 11.1 99 9.97 10.9 15 28 1020.4 0.2 22.7 29.3 47.4 124.6 121.9 420.1
Marble Bar 02/09 08:20 29.3 20 5.84 4 13 20 1017.2 0 13.2 18.5 24.5 63.7 53.0 180.8
Mardie 02/09 08:20 22.5 58 11.58 13.8 11 15 1017.9 0 25.4 28.2 47.1 124.1 125.4 433.9
Meekatharra 02/09 08:20 16 72 9.81 11 17 20 1021.3 0 22.0 27.5 43.9 115.3 112.2 387.1
Millendon (Swan Valley) 02/09 08:20 11.5 81 8.37 8.4 6 9 1023.3 0 19.2 26.6 40.5 106.1 99.1 340.4
Morawa Airport 02/09 08:20 12.2 72 7.77 7.3 6 7 1024.3 0 17.9 25.4 37.7 98.8 90.3 309.6
Mount Keith 02/09 08:20 15.2 68 8.83 9.3 13 15 1013.1 0 20.0 25.9 40.0 105.0 99.6 343.0
Mount Magnet Airport 02/09 08:20 14.3 74 9.09 9.7 4 9 1022.4 0 20.6 26.9 41.9 110.0 105.0 361.7
Munglinup West 02/09 08:20 11.6 67 6.96 5.7 17 30 1020.7 0.2 16.2 24.2 34.7 90.6 80.1 274.0
Newdegate 02/09 08:20 9.4 78 7.06 5.8 9 13 1021.6 0 16.5 25.0 36.1 94.3 83.8 286.6
Newman Airport 02/09 08:20 23.3 29 6.06 4.3 4 9 1018.7 0 13.8 20.0 27.0 70.3 59.3 202.6
Norseman Airport 02/09 08:20 11.2 85 8.62 8.8 9 15 1021.6 0 19.8 27.0 41.6 109.1 102.7 353.3
North Island 02/09 08:20 17.7 54 8.15 8.3 24 32 1024.2 0 18.4 24.5 36.7 96.0 88.8 305.4
Onslow Airport 02/09 08:20 22.6 51 10.24 12 13 20 1019.1 0 22.6 26.1 41.9 110.2 108.3 374.1
Paraburdoo 02/09 08:20 24.7 27 6.11 4.5 7 13 1018.3 0 13.9 19.8 26.7 69.6 58.8 201.0
Pearce 02/09 08:20 11.7 79 8.26 8.2 7 9 1023.3 0 19.0 26.3 39.9 104.6 97.3 334.3
Perth 02/09 08:20 12.4 77 8.41 8.5 6 11 1023.3 0 19.2 26.4 40.2 105.3 98.5 338.4
Perth Airport 02/09 08:20 12.4 74 8.09 7.9 9 13 1023.1 0 18.6 25.8 38.9 101.8 94.2 323.4
Port Hedland 02/09 08:20 25.5 42 9.94 11.7 6 9 1016.8 0 21.8 24.8 39.3 103.2 100.6 347.7
Portable Btsa (Dfes) 02/09 08:10 16.3 68 9.43 10.5 13 17 1013.1 0 21.2 26.5 41.8 109.9 106.0 365.5
Portable Btsd (Dfes) 02/09 08:10 12.2 52 5.61 2.8 17 19 1013.1 0 13.3 21.7 29.0 75.7 62.3 211.7
Portable Btse (Dfes) 02/09 06:40 15.3 71 9.27 10.2 2 6 1013.1 0 20.9 26.5 41.7 109.6 105.3 362.8
Portable Btsf (Dfes) 02/09 08:00 19.5 56 9.4 10.7 11 15 1013.1 0 21.0 25.5 40.1 105.3 101.4 349.7
Portable Btsh (Dfes) 02/09 08:10 15.2 100 12.98 15.2 15 17 1013.1 0 28.9 33.0 57.8 152.4 157.9 546.6
Portable Btsj (Dfes) 02/09 08:10 15.8 62 8.35 8.5 7 13 1013.1 0 19.0 24.9 37.8 99.2 92.7 318.8
Portable Btsl (Dfes) 02/09 08:10 11.2 81 8.21 8 9 11 1013.1 0 18.9 26.0 39.5 103.7 96.5 331.3
Portable Btsm (Dfes) 02/09 08:10 21.7 34 6.49 5.5 2 6 1013.1 0 14.8 20.8 28.8 75.1 64.9 222.0
Portable Btsn (Dfes) 02/09 08:10 14.8 64 8.11 8.1 11 13 1013.1 0 18.5 24.8 37.4 98.0 90.8 312.0
Portable Btso (Dfes) 02/09 08:10 12.5 77 8.47 8.6 6 7 1013.1 0 19.4 26.1 39.9 104.8 98.3 338.0
Red Rocks Point 02/09 08:20 15.6 64 8.51 8.8 13 20 1021.4 0 19.3 25.5 38.9 102.0 95.6 329.0
Rocky Gully South 02/09 08:20 11 91 9.11 9.6 17 26 1013.1 0 20.8 27.6 43.4 114.0 109.1 375.5
Roebourne Airport 02/09 08:20 27 41 10.55 12.6 9 13 1017.4 0 23.0 25.3 40.8 107.2 106.0 366.5
Rottnest Island 02/09 08:20 15.6 61 8.11 8.1 17 24 1022.7 0 18.5 25.0 37.4 98.0 90.6 311.3
Salmon Gums Rs 02/09 08:20 11 69 6.91 5.5 13 22 1013.1 0 16.1 24.0 34.4 90.0 79.5 272.1
Shannon 02/09 08:20 11.6 100 10.4 11.6 11 19 1013.1 1 23.6 29.6 48.6 128.0 126.6 436.6
Shark Bay Airport 02/09 08:20 17.7 76 11.47 13.4 20 30 1023 0 25.5 29.8 49.9 131.3 132.4 457.8
Solomon Airport 02/09 08:20 23.8 30 6.45 5.2 7 9 1018.4 0 14.6 20.4 28.1 73.3 63.1 215.9
Southern Cross Airport 02/09 08:20 7.8 100 8.16 7.8 0 0 1022.8 0 18.9 27.3 41.5 108.8 100.9 346.4
Swanbourne 02/09 08:20 15.9 89 12.05 14.1 6 13 1013.1 0.2 26.9 31.1 53.1 139.9 142.8 494.0
Telfer 02/09 08:20 28 26 7.07 6.7 13 17 1017.4 0 15.8 20.3 28.6 74.8 66.3 227.5
Thevenard Island 02/09 08:20 21.9 58 11.19 13.3 15 19 1018.9 0 24.6 27.8 46.0 121.0 121.4 419.8
Troughton Island 02/09 09:50 27.6 71 18.89 21.9 13 17 1018.2 0 40.4 38.8 74.4 196.8 216.2 751.3
Truscott 02/09 09:50 28 53 14.41 17.5 9 15 1017.5 0 31.0 30.9 54.9 144.8 152.5 529.3
Walpole North 02/09 08:20 12.9 98 11.05 12.6 20 30 1018.7 1.6 24.9 30.6 51.0 134.1 134.4 464.1
Wandering 02/09 08:20 11.2 82 8.31 8.2 9 13 1013.1 0.2 19.1 26.2 39.9 104.8 97.8 336.1
Warburton 02/09 09:50 23.5 45 9.52 10.9 13 19 1019.7 0 21.0 24.8 38.8 102.0 98.4 339.5
West Angelas 02/09 08:20 24.1 27 5.91 4 6 9 1018.5 0 13.5 19.6 26.3 68.4 57.2 195.1
West Musgrave Airport 02/09 08:20 22.4 49 9.73 11.2 13 17 1013.1 0 21.6 25.2 39.9 104.8 101.8 351.3
Wiluna Airport 02/09 08:20 16.9 58 8.34 8.6 6 7 1020.5 0 18.9 24.9 37.6 98.5 91.8 315.9
Witchcliffe West 02/09 08:20 14.6 87 10.89 12.5 19 28 1021 2.2 24.4 29.8 49.3 129.6 129.3 446.7
Wyndham Airport 02/09 09:50 29.3 34 9.93 11.8 2 7 1018.5 0 21.6 23.8 37.5 98.6 96.0 331.9
Yampi Sound (Defence) 02/09 08:20 27.2 63 16.39 19.5 6 7 1021.7 0 35.2 34.7 63.9 168.8 181.6 630.7

Last Refresh: 02-Sep-2026 10:03:10

Bureau of Meteorology